Time;durP1;ratioP1;P1;durP2;ratioP2;P2;SDS_P1;SDS_P2;PMS_P1;PMS_P2;Temp;Humidity;BMP_temperature;BMP_pressure;BME280_temperature;BME280_humidity;BME280_pressure;Samples;Min_cycle;Max_cycle;Signal;HPM_P1;HPM_P2
2022/11/08 00:01:55;;;;;;;12.80;11.45;;;;;;;6.67;86.20;100666.45;3257771;84;20973;-72
2022/11/08 00:17:06;;;;;;;14.93;11.35;;;;;;;6.81;86.59;100658.71;3259643;84;21015;-73
2022/11/08 00:21:57;;;;;;;16.90;13.25;;;;;;;6.89;86.73;100670.61;3237992;84;20991;-73
2022/11/08 00:26:48;;;;;;;18.60;12.70;;;;;;;6.99;86.83;100675.23;3242490;85;21736;-73
2022/11/08 00:31:39;;;;;;;11.33;9.98;;;;;;;7.07;86.94;100676.75;3230413;86;22379;-73
2022/11/08 00:36:30;;;;;;;13.58;11.55;;;;;;;7.13;87.08;100678.22;3267934;85;21084;-73
2022/11/08 00:41:21;;;;;;;14.63;11.65;;;;;;;7.18;87.01;100672.77;3234717;84;21475;-74
2022/11/08 00:46:12;;;;;;;12.63;11.00;;;;;;;7.18;87.01;100672.77;3255743;84;21010;-73
2022/11/08 00:51:06;;;;;;;14.75;11.73;;;;;;;7.21;87.07;100670.29;3250977;85;21496;-73
2022/11/08 00:56:04;;;;;;;17.25;12.37;;;;;;;7.24;87.17;100672.08;3259891;84;20956;-73
2022/11/08 01:00:55;;;;;;;15.05;11.28;;;;;;;7.29;87.49;100661.45;3233609;84;20980;-73
2022/11/08 01:05:49;;;;;;;14.43;11.85;;;;;;;7.29;87.49;100661.45;3306771;84;21609;-73
2022/11/08 01:10:43;;;;;;;17.15;12.25;;;;;;;7.27;87.37;100655.37;3254783;84;21007;-73
2022/11/08 01:15:41;;;;;;;13.85;12.18;;;;;;;7.27;87.37;100655.37;3210100;84;21030;-73
2022/11/08 01:20:42;;;;;;;15.75;12.18;;;;;;;7.33;87.29;100664.58;3255534;85;21061;-73
2022/11/08 01:25:44;;;;;;;16.87;11.22;;;;;;;7.29;87.35;100663.17;3284615;84;21668;-73
2022/11/08 01:30:40;;;;;;;14.47;10.78;;;;;;;7.27;87.33;100651.91;3269402;84;20982;-73
2022/11/08 01:35:34;;;;;;;16.62;12.03;;;;;;;7.16;87.25;100639.53;3268160;84;21554;-73
2022/11/08 01:40:27;;;;;;;16.23;11.80;;;;;;;7.22;87.44;100657.80;3255915;83;21530;-73
2022/11/08 01:46:06;;;;;;;13.05;11.03;;;;;;;7.21;87.48;100648.73;3247724;84;21504;-73
2022/11/08 01:50:59;;;;;;;15.18;13.05;;;;;;;7.21;87.54;100648.31;3236303;86;21021;-73
2022/11/08 01:55:50;;;;;;;14.10;10.88;;;;;;;7.23;87.56;100652.23;3235054;84;21530;-73
2022/11/08 02:00:42;;;;;;;15.58;10.18;;;;;;;7.23;87.73;100651.81;3236180;84;20986;-73
2022/11/08 02:05:33;;;;;;;14.33;11.25;;;;;;;7.23;87.73;100646.64;3226180;85;21294;-73
2022/11/08 02:10:29;;;;;;;15.15;11.83;;;;;;;7.23;87.83;100651.81;3241431;84;21197;-74
2022/11/08 02:15:22;;;;;;;16.02;11.05;;;;;;;7.23;87.83;100651.81;3226419;84;21673;-73
2022/11/08 02:20:14;;;;;;;17.17;12.30;;;;;;;7.23;87.86;100650.52;3262444;84;20960;-73
2022/11/08 02:25:06;;;;;;;16.12;13.60;;;;;;;7.23;87.96;100649.23;3302364;84;21044;-73
2022/11/08 02:29:57;;;;;;;13.68;11.43;;;;;;;7.26;87.91;100653.59;3237956;85;20982;-73
2022/11/08 02:34:54;;;;;;;15.80;11.45;;;;;;;7.23;87.81;100655.69;3283024;84;21138;-73
2022/11/08 02:39:46;;;;;;;15.23;11.90;;;;;;;7.22;87.94;100650.05;3286884;85;21037;-73
2022/11/08 02:44:41;;;;;;;18.37;11.33;;;;;;;7.18;87.96;100640.45;3243896;84;20991;-72
2022/11/08 02:49:32;;;;;;;17.92;11.45;;;;;;;7.16;87.96;100642.12;3316106;84;21099;-72
2022/11/08 02:54:23;;;;;;;14.13;11.97;;;;;;;7.12;87.96;100640.28;3262703;85;21761;-72
2022/11/08 02:59:14;;;;;;;13.90;11.75;;;;;;;7.15;88.08;100638.19;3273744;85;21847;-73
2022/11/08 03:04:05;;;;;;;17.67;11.60;;;;;;;7.16;88.14;100642.12;3272176;84;21146;-73
2022/11/08 03:08:56;;;;;;;14.63;11.08;;;;;;;7.17;88.23;100640.41;3274635;85;21050;-73
2022/11/08 03:13:48;;;;;;;15.58;11.68;;;;;;;7.17;88.13;100642.98;3241617;84;21154;-73
2022/11/08 03:18:39;;;;;;;18.40;12.95;;;;;;;7.16;88.22;100644.70;3238999;83;21539;-72
2022/11/08 03:23:32;;;;;;;15.10;12.10;;;;;;;7.18;88.38;100649.50;3241513;84;21378;-73
2022/11/08 03:28:23;;;;;;;13.65;11.53;;;;;;;7.24;88.61;100647.11;3277147;84;21063;-73
2022/11/08 03:33:14;;;;;;;15.95;13.28;;;;;;;7.24;88.61;100647.11;3226165;84;20995;-73
2022/11/08 03:38:06;;;;;;;15.35;11.93;;;;;;;7.28;88.44;100656.23;3244552;84;21424;-73
2022/11/08 03:42:57;;;;;;;14.80;12.00;;;;;;;7.28;88.48;100649.77;3279740;84;21076;-73
2022/11/08 03:47:48;;;;;;;16.07;11.22;;;;;;;7.31;88.56;100657.63;3280122;84;21357;-73
2022/11/08 03:52:51;;;;;;;13.83;11.53;;;;;;;7.33;88.56;100665.01;3256646;84;21098;-73
2022/11/08 03:57:44;;;;;;;15.83;11.33;;;;;;;7.34;88.62;100662.90;3266086;85;22972;-73
2022/11/08 04:02:36;;;;;;;17.15;12.60;;;;;;;7.35;88.66;100668.51;3236096;85;21501;-73
2022/11/08 04:07:27;;;;;;;12.85;11.28;;;;;;;7.34;88.55;100674.53;3242206;85;21084;-73
2022/11/08 04:21:17;;;;;;;12.15;10.80;;;;;;;7.34;88.70;100663.77;3231132;84;21633;-73
2022/11/08 04:22:21;;;;;;;13.95;10.70;;;;;;;7.32;88.68;100660.69;3245383;84;20995;-73
2022/11/08 04:27:12;;;;;;;14.70;11.22;;;;;;;7.31;88.78;100651.16;3259551;84;22014;-72
2022/11/08 04:32:06;;;;;;;13.93;10.78;;;;;;;7.33;88.90;100658.54;3244844;84;21128;-73
2022/11/08 04:36:57;;;;;;;13.22;10.32;;;;;;;7.30;88.92;100647.70;3249912;85;21187;-73
2022/11/08 04:41:49;;;;;;;14.23;10.35;;;;;;;7.28;88.90;100645.89;3237130;84;21051;-73
2022/11/08 04:46:40;;;;;;;16.32;12.18;;;;;;;7.25;88.80;100648.85;3245147;85;21035;-73
2022/11/08 04:51:32;;;;;;;17.07;12.10;;;;;;;7.23;89.19;100656.98;3221502;85;21055;-73
2022/11/08 04:56:25;;;;;;;15.53;13.10;;;;;;;7.23;89.19;100656.98;3302543;84;21481;-72
2022/11/08 05:01:41;;;;;;;15.80;11.08;;;;;;;7.24;89.05;100654.88;3241798;85;21751;-73
2022/11/08 05:06:48;;;;;;;14.40;11.30;;;;;;;7.25;88.97;100651.44;3182575;87;21125;-73
2022/11/08 05:11:42;;;;;;;19.77;11.40;;;;;;;7.25;89.05;100657.91;3168162;88;21148;-74
2022/11/08 05:16:33;;;;;;;16.40;10.93;;;;;;;7.24;89.07;100647.51;3142933;88;21306;-74
2022/11/08 05:26:41;;;;;;;20.70;14.30;;;;;;;7.06;88.83;100651.33;3153087;88;21273;-73
2022/11/08 05:31:32;;;;;;;14.68;11.78;;;;;;;6.96;89.06;100651.00;3148668;87;21114;-73
2022/11/08 05:36:23;;;;;;;16.97;12.00;;;;;;;6.82;88.72;100656.61;3161333;88;21098;-73
2022/11/08 05:41:19;;;;;;;18.90;12.65;;;;;;;6.69;88.62;100663.52;3204430;85;21663;-73
2022/11/08 05:46:10;;;;;;;12.90;11.38;;;;;;;6.48;88.20;100680.49;3236507;84;21078;-73
2022/11/08 05:51:01;;;;;;;13.80;11.50;;;;;;;6.48;88.20;100680.49;3302011;84;21217;-73
2022/11/08 05:55:59;;;;;;;15.80;11.08;;;;;;;6.38;88.32;100688.33;3230188;84;21000;-73
2022/11/08 06:00:50;;;;;;;17.23;11.50;;;;;;;6.26;88.21;100686.62;3232466;84;21150;-73
2022/11/08 06:05:41;;;;;;;14.05;10.58;;;;;;;6.20;88.15;100695.04;3255059;84;21047;-72
2022/11/08 06:10:33;;;;;;;15.88;11.15;;;;;;;6.15;88.11;100695.72;3239064;84;21058;-72
2022/11/08 06:15:24;;;;;;;17.90;11.20;;;;;;;6.07;88.11;100706.66;3252575;84;22022;-72
2022/11/08 06:20:16;;;;;;;18.35;12.85;;;;;;;5.99;87.93;100694.30;3270004;84;21530;-71
2022/11/08 06:25:08;;;;;;;17.27;11.20;;;;;;;5.99;87.93;100694.30;3225164;84;21099;-73
2022/11/08 06:29:59;;;;;;;17.48;12.53;;;;;;;6.02;88.14;100699.16;3262651;84;20973;-72
2022/11/08 06:34:50;;;;;;;24.10;13.35;;;;;;;6.03;88.14;100707.38;3265265;84;22073;-72
2022/11/08 06:39:41;;;;;;;14.78;10.80;;;;;;;6.04;87.96;100706.53;3248810;84;21381;-71
2022/11/08 06:44:33;;;;;;;15.65;10.90;;;;;;;6.09;88.16;100712.73;3216052;84;21035;-72
2022/11/08 06:49:24;;;;;;;17.32;11.88;;;;;;;6.15;88.10;100704.75;3265790;85;21632;-71
2022/11/08 06:54:16;;;;;;;20.30;11.35;;;;;;;6.23;88.26;100699.45;3250223;84;21060;-71
2022/11/08 06:59:09;;;;;;;18.25;11.25;;;;;;;6.39;88.16;100706.89;3222807;84;21026;-71
2022/11/08 07:04:00;;;;;;;16.62;11.55;;;;;;;6.90;88.35;100698.61;3244958;84;21114;-73
2022/11/08 07:08:51;;;;;;;15.72;11.80;;;;;;;6.90;88.35;100698.61;3251370;86;20999;-73
2022/11/08 07:13:42;;;;;;;14.25;11.20;;;;;;;7.20;88.64;100704.73;3235381;86;21291;-73
2022/11/08 07:18:33;;;;;;;18.75;12.63;;;;;;;7.47;88.79;100714.14;3258423;85;21143;-72
2022/11/08 07:23:25;;;;;;;15.60;12.05;;;;;;;7.70;88.71;100714.81;3224040;86;21092;-74
2022/11/08 07:28:18;;;;;;;15.63;12.18;;;;;;;7.90;88.74;100720.55;3238649;86;21352;-73
2022/11/08 07:33:10;;;;;;;15.25;12.10;;;;;;;8.09;88.66;100728.84;3226293;86;21026;-71
2022/11/08 07:38:03;;;;;;;18.00;11.90;;;;;;;8.29;88.33;100723.77;3234232;86;21011;-72
2022/11/08 07:43:00;;;;;;;14.15;10.88;;;;;;;8.60;87.88;100721.98;3249645;85;21042;-72
2022/11/08 07:48:00;;;;;;;16.37;13.00;;;;;;;8.84;87.07;100726.05;3295932;84;21031;-72
2022/11/08 07:52:51;;;;;;;13.30;11.73;;;;;;;8.92;86.68;100728.38;3215461;85;21155;-72
2022/11/08 07:57:43;;;;;;;14.93;12.20;;;;;;;8.89;86.77;100727.00;3198305;86;21153;-73
2022/11/08 08:02:34;;;;;;;16.73;12.68;;;;;;;8.84;86.72;100713.08;3247724;86;21168;-73
2022/11/08 08:07:25;;;;;;;14.75;11.90;;;;;;;8.83;86.85;100724.28;3225675;86;21075;-73
2022/11/08 08:12:17;;;;;;;14.10;10.82;;;;;;;8.86;86.85;100721.77;3252761;86;21055;-73
2022/11/08 08:17:08;;;;;;;20.55;10.85;;;;;;;8.89;86.76;100719.23;3216224;86;20992;-72
2022/11/08 08:21:59;;;;;;;15.90;10.58;;;;;;;8.94;86.77;100713.73;3233532;86;21042;-73
2022/11/08 08:26:51;;;;;;;14.80;10.33;;;;;;;9.01;86.81;100711.73;3224119;85;20960;-73
2022/11/08 08:31:50;;;;;;;13.20;9.15;;;;;;;9.12;86.72;100711.59;3220597;86;21763;-75
2022/11/08 08:36:54;;;;;;;;;;;;;;;;;;;;;
2022/11/08 08:41:46;;;;;;;10.57;9.07;;;;;;;9.49;85.98;100713.67;3261343;84;21231;-75
2022/11/08 08:47:05;;;;;;;13.62;9.45;;;;;;;9.61;85.68;100702.69;3238966;84;21512;-76
2022/11/08 08:52:41;;;;;;;;;;;;;;;;;;;;;
2022/11/08 08:57:33;;;;;;;13.78;9.45;;;;;;;10.41;84.57;100708.14;3134568;86;21079;-75
2022/11/08 09:10:15;;;;;;;;;;;;;;;;;;;;;
2022/11/08 09:15:12;;;;;;;13.20;8.40;;;;;;;10.76;83.76;100721.27;2714301;102;21133;-74
2022/11/08 09:20:26;;;;;;;13.38;7.97;;;;;;;11.73;82.56;100710.52;2705732;102;21837;-75
2022/11/08 09:25:31;;;;;;;8.53;7.10;;;;;;;12.46;81.37;100714.78;2705947;102;21272;-74
2022/11/08 09:30:28;;;;;;;12.40;8.58;;;;;;;12.29;80.84;100713.77;2666529;105;21256;-74
2022/11/08 09:35:21;;;;;;;13.83;7.22;;;;;;;12.87;79.98;100709.03;2716868;103;22237;-73
2022/11/08 09:40:41;;;;;;;11.35;6.87;;;;;;;13.00;80.11;100704.77;2712668;102;21069;-73
2022/11/08 09:45:45;;;;;;;11.73;6.83;;;;;;;13.03;79.40;100705.23;2795035;98;21614;-73
2022/11/08 09:50:41;;;;;;;10.48;7.20;;;;;;;13.80;78.17;100700.00;2848066;98;21104;-73
2022/11/08 09:56:13;;;;;;;14.05;7.67;;;;;;;14.15;76.82;100698.34;2839908;98;21022;-74
2022/11/08 10:06:50;;;;;;;8.63;5.67;;;;;;;16.04;73.50;100697.19;2832782;98;21109;-74
2022/11/08 10:12:16;;;;;;;8.30;5.92;;;;;;;15.66;74.14;100692.98;2865801;97;21121;-74
2022/11/08 10:18:05;;;;;;;7.90;5.08;;;;;;;15.19;74.73;100686.58;2826556;98;21099;-73
2022/11/08 10:23:27;;;;;;;7.83;5.33;;;;;;;15.81;73.73;100687.72;2784170;99;21128;-72
2022/11/08 10:28:30;;;;;;;6.37;4.70;;;;;;;16.38;72.07;100681.67;2973819;91;22709;-73
2022/11/08 10:33:48;;;;;;;7.50;5.35;;;;;;;16.52;71.24;100679.36;2915159;95;21118;-76
2022/11/08 10:39:15;;;;;;;6.62;4.55;;;;;;;16.33;71.33;100678.66;2940774;95;21637;-76
2022/11/08 10:44:23;;;;;;;9.78;5.17;;;;;;;16.77;71.24;100678.25;3097852;89;21059;-75
2022/11/08 10:49:31;;;;;;;4.78;4.30;;;;;;;17.29;70.56;100668.14;3124939;89;21255;-75
2022/11/08 10:54:47;;;;;;;7.72;5.10;;;;;;;17.38;69.42;100670.66;3126317;89;21981;-76
2022/11/08 10:59:39;;;;;;;10.00;5.12;;;;;;;17.86;68.38;100665.69;3125390;89;21073;-75
2022/11/08 11:04:33;;;;;;;7.08;5.42;;;;;;;18.97;67.48;100664.39;3050287;91;21399;-75
2022/11/08 11:09:26;;;;;;;8.18;5.20;;;;;;;19.71;65.80;100666.42;3074540;89;21087;-76
2022/11/08 11:14:20;;;;;;;11.40;4.70;;;;;;;20.60;65.19;100660.83;3078445;89;21047;-77
2022/11/08 11:19:19;;;;;;;5.65;4.33;;;;;;;21.54;63.03;100650.41;3202272;86;21359;-76
2022/11/08 11:24:19;;;;;;;7.72;4.87;;;;;;;21.96;61.59;100640.73;3219024;86;21042;-77
2022/11/08 11:29:25;;;;;;;6.10;4.80;;;;;;;22.04;60.37;100641.38;3237067;86;21014;-75
2022/11/08 11:34:28;;;;;;;5.40;4.62;;;;;;;21.11;60.99;100641.04;3259857;85;21023;-76
2022/11/08 11:39:34;;;;;;;7.35;5.03;;;;;;;20.95;60.68;100644.09;3241741;86;22200;-76
2022/11/08 11:44:52;;;;;;;6.77;4.20;;;;;;;19.89;61.34;100649.78;3255219;85;21584;-75
2022/11/08 11:49:47;;;;;;;8.30;4.92;;;;;;;18.79;61.88;100640.53;3258228;86;21564;-76
2022/11/08 11:54:40;;;;;;;6.03;4.33;;;;;;;18.24;62.39;100648.48;3228319;86;21681;-75
2022/11/08 11:59:52;;;;;;;6.78;4.00;;;;;;;17.61;63.32;100647.17;3230336;86;21039;-74
2022/11/08 12:05:17;;;;;;;6.35;4.97;;;;;;;17.04;63.71;100645.22;3262161;85;21679;-76
2022/11/08 12:10:31;;;;;;;7.67;4.65;;;;;;;16.55;64.30;100642.60;3235488;86;21158;-76
2022/11/08 12:15:40;;;;;;;6.12;4.15;;;;;;;16.31;65.28;100644.97;3235653;84;21011;-75
2022/11/08 12:20:49;;;;;;;6.90;3.90;;;;;;;16.07;65.76;100641.66;3261732;86;21031;-74
2022/11/08 12:25:58;;;;;;;4.97;4.40;;;;;;;15.91;65.79;100646.58;3224602;86;21384;-75
2022/11/08 12:31:07;;;;;;;6.10;3.98;;;;;;;15.81;66.37;100643.16;3276560;86;21004;-75
2022/11/08 12:36:09;;;;;;;6.35;3.85;;;;;;;15.71;66.05;100642.73;3250943;86;21117;-75
2022/11/08 12:41:10;;;;;;;6.87;3.70;;;;;;;15.62;65.77;100634.02;3265088;84;21010;-75
2022/11/08 12:46:17;;;;;;;5.05;3.45;;;;;;;15.54;65.85;100629.28;3262780;86;21703;-74
2022/11/08 12:51:19;;;;;;;5.45;3.90;;;;;;;15.42;65.23;100622.78;3245616;86;21022;-74
2022/11/08 12:56:16;;;;;;;5.47;3.42;;;;;;;15.36;65.86;100621.48;3239453;86;21637;-74
2022/11/08 13:01:13;;;;;;;6.15;4.12;;;;;;;15.32;65.99;100620.62;3245061;86;22208;-75
2022/11/08 13:06:16;;;;;;;9.13;4.58;;;;;;;15.14;66.31;100621.56;3253975;86;21003;-75
2022/11/08 13:11:13;;;;;;;4.53;3.98;;;;;;;14.98;66.37;100620.73;3233313;86;21066;-74
2022/11/08 13:16:21;;;;;;;9.48;3.80;;;;;;;14.79;66.63;100627.77;3276541;86;21942;-74
2022/11/08 13:21:33;;;;;;;6.22;3.70;;;;;;;14.61;66.46;100623.86;3260071;86;21055;-74
2022/11/08 13:26:26;;;;;;;4.87;3.25;;;;;;;14.42;66.86;100632.14;3255411;86;22060;-74
2022/11/08 13:31:48;;;;;;;8.30;3.55;;;;;;;14.22;67.20;100630.83;3217495;84;21206;-74
2022/11/08 13:37:23;;;;;;;6.05;3.65;;;;;;;14.01;67.66;100622.08;3243479;86;21037;-75
2022/11/08 13:42:20;;;;;;;5.12;3.52;;;;;;;13.81;67.69;100622.49;3241066;86;21007;-74
2022/11/08 13:47:38;;;;;;;6.33;3.10;;;;;;;13.57;68.27;100613.70;3296791;85;21032;-74
2022/11/08 13:52:44;;;;;;;11.95;6.65;;;;;;;13.33;68.67;100610.14;3199953;87;21212;-76
2022/11/08 13:57:59;;;;;;;6.65;3.52;;;;;;;13.12;69.20;100605.66;3160714;88;21047;-75
2022/11/08 14:02:51;;;;;;;5.60;3.65;;;;;;;12.93;69.59;100604.71;3202173;88;21023;-74
2022/11/08 14:07:47;;;;;;;8.95;3.83;;;;;;;12.76;69.93;100598.52;3159332;88;21486;-75
2022/11/08 14:13:29;;;;;;;6.22;3.80;;;;;;;12.62;70.31;100594.95;3190878;87;21025;-76
2022/11/08 14:18:32;;;;;;;13.22;5.80;;;;;;;12.45;70.64;100596.11;3163150;88;21099;-74
2022/11/08 14:23:42;;;;;;;5.35;3.20;;;;;;;12.23;71.42;100596.39;3176640;88;21071;-75
2022/11/08 14:28:37;;;;;;;3.37;3.08;;;;;;;12.02;72.04;100605.78;3217549;84;21545;-74
2022/11/08 14:33:31;;;;;;;4.53;3.12;;;;;;;11.77;72.40;100613.75;3238295;85;21021;-74
2022/11/08 14:38:28;;;;;;;3.65;2.75;;;;;;;11.54;72.82;100610.90;3253525;86;21027;-73
2022/11/08 14:43:21;;;;;;;10.50;3.52;;;;;;;11.36;73.48;100608.52;3177015;86;21107;-74
2022/11/08 14:48:23;;;;;;;6.00;3.02;;;;;;;11.16;73.88;100602.17;3248377;86;21116;-75
2022/11/08 14:53:29;;;;;;;7.35;3.67;;;;;;;10.94;74.13;100605.80;3225704;86;20925;-75
2022/11/08 14:58:20;;;;;;;8.20;3.47;;;;;;;10.75;74.21;100612.48;3189486;86;21137;-74
2022/11/08 15:03:16;;;;;;;9.60;3.37;;;;;;;10.53;74.58;100624.27;3239484;85;21628;-74
2022/11/08 15:08:19;;;;;;;4.00;3.37;;;;;;;10.38;75.16;100624.91;3254489;85;22526;-74
2022/11/08 15:13:10;;;;;;;9.65;4.20;;;;;;;10.19;75.08;100632.77;3254123;85;21063;-75
2022/11/08 15:18:12;;;;;;;7.60;3.95;;;;;;;10.05;75.82;100631.66;3256296;85;21582;-76
2022/11/08 15:23:27;;;;;;;8.53;3.85;;;;;;;9.88;75.83;100623.58;3236641;86;21026;-76
2022/11/08 15:28:21;;;;;;;19.27;4.17;;;;;;;9.73;76.27;100622.88;3194109;88;21077;-75
2022/11/08 15:33:35;;;;;;;7.28;3.62;;;;;;;9.56;76.29;100620.37;3166966;87;22279;-75
2022/11/08 15:38:42;;;;;;;6.95;3.95;;;;;;;9.42;76.21;100623.55;3203441;87;21112;-73
2022/11/08 15:43:40;;;;;;;5.28;3.10;;;;;;;9.26;76.59;100615.02;3178019;87;21298;-74
2022/11/08 15:48:32;;;;;;;5.00;3.62;;;;;;;9.11;75.86;100628.11;3134697;87;21080;-76
2022/11/08 15:53:26;;;;;;;7.83;3.90;;;;;;;9.00;76.96;100619.23;3166700;88;21143;-74
2022/11/08 15:58:32;;;;;;;4.33;2.85;;;;;;;8.93;77.44;100604.39;3209880;87;22897;-75
2022/11/08 16:03:23;;;;;;;9.75;3.72;;;;;;;8.83;77.24;100613.66;3260873;84;20999;-74
2022/11/08 16:08:14;;;;;;;9.60;4.08;;;;;;;8.70;77.44;100619.00;3248706;84;22033;-73
2022/11/08 16:13:15;;;;;;;4.62;3.65;;;;;;;8.61;77.52;100623.10;3271226;83;21032;-74
2022/11/08 16:18:09;;;;;;;10.48;5.67;;;;;;;8.49;77.78;100624.97;3291932;83;21075;-75
2022/11/08 16:23:04;;;;;;;9.43;3.77;;;;;;;8.45;78.15;100625.75;3258387;86;21196;-75
2022/11/08 16:27:59;;;;;;;6.45;4.92;;;;;;;8.36;78.10;100627.66;3232276;84;21051;-74
2022/11/08 16:32:50;;;;;;;4.85;4.08;;;;;;;8.26;78.32;100631.72;3231008;84;20964;-73
2022/11/08 16:37:43;;;;;;;6.60;4.05;;;;;;;8.18;78.44;100630.67;3230164;84;22080;-74
2022/11/08 16:42:34;;;;;;;7.70;5.03;;;;;;;8.09;78.28;100626.55;3273919;83;20956;-74
2022/11/08 16:47:27;;;;;;;11.28;5.45;;;;;;;8.01;78.63;100631.12;3205638;85;21129;-74
2022/11/08 16:52:18;;;;;;;6.35;4.58;;;;;;;7.93;78.55;100631.75;3239667;84;21543;-74
2022/11/08 16:57:10;;;;;;;10.83;5.10;;;;;;;7.84;78.58;100629.79;3234019;84;20955;-74
2022/11/08 17:02:01;;;;;;;9.45;5.60;;;;;;;7.75;78.79;100626.96;3221837;84;21709;-74
2022/11/08 17:06:52;;;;;;;10.60;5.75;;;;;;;7.69;78.95;100637.13;3251210;85;20992;-74
2022/11/08 17:11:43;;;;;;;8.33;5.60;;;;;;;7.63;79.17;100627.06;3256548;84;21976;-73
2022/11/08 17:16:34;;;;;;;8.75;4.72;;;;;;;7.56;79.17;100628.16;3268795;84;21071;-74
2022/11/08 17:21:26;;;;;;;11.78;6.90;;;;;;;7.49;78.86;100636.16;3234928;84;21055;-74
2022/11/08 17:26:18;;;;;;;11.03;5.78;;;;;;;7.40;79.08;100626.84;3241638;84;38676;-74
2022/11/08 17:31:18;;;;;;;8.68;5.87;;;;;;;7.34;79.23;100631.43;3229390;86;21043;-73
2022/11/08 17:36:12;;;;;;;16.23;7.03;;;;;;;7.24;79.44;100622.55;3250619;84;21499;-73
2022/11/08 17:41:06;;;;;;;9.60;6.10;;;;;;;7.24;79.66;100629.02;3221751;84;20955;-74
2022/11/08 17:45:59;;;;;;;12.65;6.60;;;;;;;7.12;79.54;100618.31;3236387;84;20974;-74
2022/11/08 17:50:50;;;;;;;9.30;6.37;;;;;;;7.02;79.55;100618.86;3254024;85;21529;-73
2022/11/08 17:55:42;;;;;;;11.83;6.40;;;;;;;7.02;79.55;100618.86;3238042;84;20924;-73
2022/11/08 18:00:33;;;;;;;12.15;6.95;;;;;;;6.99;79.71;100627.80;3222247;85;22593;-73
2022/11/08 18:05:24;;;;;;;18.48;7.87;;;;;;;6.95;80.04;100629.84;3271631;85;21563;-72
2022/11/08 18:10:16;;;;;;;7.70;6.58;;;;;;;6.89;80.02;100633.55;3225328;85;21485;-72
2022/11/08 18:15:09;;;;;;;10.00;7.08;;;;;;;6.87;80.41;100629.20;3230769;86;22364;-72
2022/11/08 18:20:00;;;;;;;12.78;8.10;;;;;;;6.83;80.71;100637.70;3224447;85;21051;-72
2022/11/08 18:24:52;;;;;;;11.80;8.03;;;;;;;6.83;80.71;100637.70;3204497;84;22525;-72
2022/11/08 18:29:43;;;;;;;13.32;7.60;;;;;;;6.80;80.71;100636.73;3206286;86;21072;-72
2022/11/08 18:34:34;;;;;;;8.73;7.83;;;;;;;6.78;80.82;100649.59;3217274;84;21719;-72
2022/11/08 18:39:25;;;;;;;16.02;8.78;;;;;;;6.76;81.05;100638.73;3224879;86;21401;-72
2022/11/08 18:44:17;;;;;;;8.80;7.72;;;;;;;6.74;81.12;100633.51;3230533;85;21519;-72
2022/11/08 18:49:09;;;;;;;8.53;7.17;;;;;;;6.69;81.09;100633.81;3200847;84;21238;-72
2022/11/08 18:54:00;;;;;;;9.88;7.92;;;;;;;6.54;81.17;100625.56;3253473;84;21100;-72
2022/11/08 18:58:52;;;;;;;10.55;6.85;;;;;;;6.54;81.15;100633.31;3259527;86;21673;-72
2022/11/08 19:03:43;;;;;;;10.30;7.15;;;;;;;6.54;81.15;100633.31;3231220;85;21001;-72
2022/11/08 19:08:35;;;;;;;16.65;9.05;;;;;;;6.52;81.26;100640.14;3263715;84;20996;-73
2022/11/08 19:13:30;;;;;;;14.30;9.38;;;;;;;6.48;81.54;100634.87;3267285;86;22468;-73
2022/11/08 19:18:22;;;;;;;16.87;9.83;;;;;;;6.45;81.63;100636.05;3283421;84;21009;-73
2022/11/08 19:23:20;;;;;;;13.80;8.48;;;;;;;6.39;81.50;100642.32;3188268;86;21145;-73
2022/11/08 19:28:11;;;;;;;10.65;8.35;;;;;;;6.35;81.55;100645.64;3236501;86;21517;-73
2022/11/08 19:33:05;;;;;;;13.35;8.48;;;;;;;6.29;81.52;100648.00;3242648;85;20933;-73
2022/11/08 19:37:56;;;;;;;10.65;8.55;;;;;;;6.20;81.58;100651.58;3248511;85;20972;-73
2022/11/08 19:42:48;;;;;;;10.35;7.80;;;;;;;6.19;82.02;100665.30;3272078;85;21657;-73
2022/11/08 19:47:39;;;;;;;13.50;9.48;;;;;;;6.10;82.09;100655.14;3227671;85;21183;-73
2022/11/08 19:52:30;;;;;;;14.30;9.15;;;;;;;6.10;82.09;100655.14;3233054;85;20985;-73
2022/11/08 19:57:28;;;;;;;14.65;9.43;;;;;;;6.13;82.23;100665.97;3219341;85;21271;-73
2022/11/08 20:02:18;;;;;;;13.50;9.40;;;;;;;6.10;82.22;100666.75;3230577;85;21686;-72
2022/11/08 20:07:09;;;;;;;13.32;8.48;;;;;;;6.06;82.34;100666.20;3191465;86;21038;-72
2022/11/08 20:12:03;;;;;;;13.55;9.58;;;;;;;5.97;82.81;100663.27;3254389;85;21037;-73
2022/11/08 20:16:54;;;;;;;12.47;9.03;;;;;;;5.97;82.81;100663.27;3208114;86;21063;-73
2022/11/08 20:21:45;;;;;;;13.62;9.73;;;;;;;6.01;82.71;100672.00;3260618;86;20955;-73
2022/11/08 20:26:41;;;;;;;14.95;9.55;;;;;;;5.95;82.41;100667.47;3238801;86;21955;-73
2022/11/08 20:31:32;;;;;;;12.58;8.45;;;;;;;5.93;82.60;100664.83;3238848;84;21020;-73
2022/11/08 20:36:24;;;;;;;18.62;12.00;;;;;;;5.86;82.46;100658.13;3238190;86;21092;-73
2022/11/08 20:41:17;;;;;;;15.68;11.45;;;;;;;5.85;82.97;100658.97;3243100;86;21463;-72
2022/11/08 20:46:15;;;;;;;17.07;12.50;;;;;;;5.84;82.81;100658.48;3224440;86;21059;-73
2022/11/08 20:51:06;;;;;;;14.05;10.50;;;;;;;5.82;82.94;100651.98;3227932;86;21760;-73
2022/11/08 20:56:04;;;;;;;15.68;11.05;;;;;;;5.81;83.03;100648.05;3244863;85;22157;-73
2022/11/08 21:00:56;;;;;;;14.58;10.68;;;;;;;5.78;82.98;100638.91;3236879;84;21099;-72
2022/11/08 21:05:57;;;;;;;15.05;10.72;;;;;;;5.76;83.14;100641.45;3230132;85;21022;-72
2022/11/08 21:10:55;;;;;;;15.23;10.65;;;;;;;5.73;83.16;100638.34;3251630;86;21003;-72
2022/11/08 21:15:48;;;;;;;16.97;11.90;;;;;;;5.70;83.33;100640.80;3203684;86;21181;-72
2022/11/08 21:20:40;;;;;;;15.35;12.05;;;;;;;5.71;83.36;100642.57;3251949;86;21060;-72
2022/11/08 21:25:31;;;;;;;15.90;10.82;;;;;;;5.69;83.55;100641.64;3228292;86;20989;-72
2022/11/08 21:30:22;;;;;;;13.95;11.08;;;;;;;5.67;83.48;100639.81;3266584;86;21039;-73
2022/11/08 21:35:14;;;;;;;16.07;10.82;;;;;;;5.64;83.59;100636.73;3227436;85;21317;-72
2022/11/08 21:40:06;;;;;;;15.08;12.43;;;;;;;5.64;83.66;100638.02;3199750;85;21073;-72
2022/11/08 21:44:57;;;;;;;14.45;11.73;;;;;;;5.60;83.53;100640.42;3245613;86;22115;-72
2022/11/08 21:49:48;;;;;;;14.23;11.22;;;;;;;5.57;83.51;100639.05;3272175;84;20979;-72
2022/11/08 21:54:39;;;;;;;15.38;11.93;;;;;;;5.52;83.83;100640.16;3271659;86;20969;-72
2022/11/08 21:59:30;;;;;;;15.00;11.22;;;;;;;5.51;83.76;100639.70;3259041;85;21345;-72
2022/11/08 22:04:22;;;;;;;15.23;11.85;;;;;;;5.47;83.75;100639.10;3286676;86;21495;-72
2022/11/08 22:09:12;;;;;;;17.10;12.45;;;;;;;5.47;84.23;100644.27;3242757;85;21594;-72
2022/11/08 22:14:04;;;;;;;17.23;13.30;;;;;;;5.46;84.13;100642.52;3232347;86;21014;-72
2022/11/08 22:18:57;;;;;;;15.25;12.70;;;;;;;5.43;84.43;100632.95;3215046;85;21485;-72
2022/11/08 22:23:48;;;;;;;20.10;13.03;;;;;;;5.45;84.76;100629.15;3232298;84;21557;-72
2022/11/08 22:28:40;;;;;;;17.15;13.03;;;;;;;5.43;84.61;100628.22;3248442;85;21173;-72
2022/11/08 22:33:31;;;;;;;13.98;11.25;;;;;;;5.41;84.65;100624.71;3248713;86;21435;-72
2022/11/08 22:38:24;;;;;;;15.88;12.70;;;;;;;5.45;84.89;100633.02;3225143;86;21617;-74
2022/11/08 22:43:15;;;;;;;16.75;13.32;;;;;;;5.44;84.91;100633.86;3255655;84;21079;-72
2022/11/08 22:48:14;;;;;;;17.80;13.13;;;;;;;5.41;84.84;100637.19;3189912;86;21434;-72
2022/11/08 22:53:07;;;;;;;16.20;12.60;;;;;;;5.41;85.23;100636.31;3245296;86;22297;-71
2022/11/08 22:58:00;;;;;;;15.80;12.15;;;;;;;5.38;84.97;100647.80;3231814;86;21014;-73
2022/11/08 23:02:51;;;;;;;16.65;13.50;;;;;;;5.38;85.40;100646.09;3265289;84;21019;-72
2022/11/08 23:07:44;;;;;;;17.20;12.65;;;;;;;5.39;85.43;100640.55;3234015;86;21021;-72
2022/11/08 23:17:54;;;;;;;16.97;13.83;;;;;;;5.34;85.12;100645.52;3258723;84;21120;-71
2022/11/08 23:33:05;;;;;;;19.95;14.13;;;;;;;5.38;85.82;100628.46;3230698;84;21038;-72
2022/11/08 23:37:57;;;;;;;16.48;12.75;;;;;;;5.30;85.72;100629.06;3247812;84;21016;-72
2022/11/08 23:48:28;;;;;;;18.82;14.83;;;;;;;5.25;85.81;100631.00;3220967;86;21155;-70
2022/11/08 23:53:25;;;;;;;17.52;13.40;;;;;;;5.20;85.79;100626.95;3160294;87;21666;-72